Terminal Aerodrome Forecast
Issued by NWS

Home | Current Version | Previous Version | Text Only | Print | Product List | Glossary On
Versions: 1 2 3 4 5 6 7 8 9 10 11 12 13 14 15 16 17 18
487
FTUS46 KHNX 091435 AAA
TAFMCE
TAF AMD
KMCE 091435Z 0915/1012 00000KT P6SM SKC
      TEMPO 0915/0918 4SM BR SCT005=

USA.gov is the U.S. government's official web portal to all federal, state and local government web resources and services.